createdAt,value
2019-05-03T13:58:58.657Z,6.97
2019-05-03T14:00:05.657Z,4.75
2019-05-03T14:01:06.960Z,5.62
2019-05-03T14:02:15.347Z,8.25
2019-05-03T14:03:15.064Z,7.60
2019-05-03T14:04:17.178Z,5.55
2019-05-03T14:05:21.042Z,2.85
2019-05-03T14:06:24.625Z,6.83
2019-05-03T14:07:28.172Z,4.17
2019-05-03T14:08:31.480Z,2.72
2019-05-03T14:09:36.364Z,4.17
2019-05-03T14:10:39.865Z,13.93
2019-05-03T14:11:44.669Z,9.03
2019-05-03T14:12:45.751Z,11.47
2019-05-03T14:13:48.670Z,9.85
2019-05-03T14:16:00.625Z,8.17
2019-05-03T14:17:05.253Z,6.83
2019-05-03T14:18:08.711Z,5.53
2019-05-03T14:19:17.320Z,6.42
2019-05-03T14:20:31.377Z,7.08
2019-05-03T14:21:40.287Z,5.90
2019-05-03T14:22:45.133Z,5.75
2019-05-03T14:23:54.249Z,2.05
2019-05-03T14:24:58.984Z,4.60
2019-05-03T14:26:04.691Z,3.60
2019-05-03T14:27:08.711Z,4.05
2019-05-03T14:28:14.589Z,5.12
2019-05-03T14:29:21.552Z,6.10
2019-05-03T14:30:26.512Z,3.02
2019-05-03T14:31:31.177Z,6.95
2019-05-03T14:32:35.951Z,8.18
2019-05-03T14:33:39.386Z,14.15
2019-05-03T14:34:45.283Z,4.65
2019-05-03T14:35:47.317Z,6.92
2019-05-03T14:36:51.236Z,7.80
2019-05-03T14:37:56.116Z,4.40
2019-05-03T14:39:00.047Z,6.83
2019-05-03T14:40:05.095Z,7.70
2019-05-03T14:42:30.256Z,8.68
2019-05-03T14:43:35.488Z,4.60
2019-05-03T14:44:39.920Z,10.13
2019-05-03T14:45:43.809Z,5.83
2019-05-03T14:46:47.888Z,10.05
2019-05-03T14:47:51.946Z,6.50
2019-05-03T14:48:58.374Z,4.55
2019-05-03T14:50:02.597Z,3.65
2019-05-03T14:51:08.015Z,5.00
2019-05-03T14:52:12.008Z,3.12
2019-05-03T14:53:16.014Z,3.25
2019-05-03T14:54:21.275Z,3.15
2019-05-03T14:55:34.851Z,4.75
2019-05-03T14:56:45.575Z,4.97
2019-05-03T14:57:55.294Z,5.25
2019-05-03T14:59:04.820Z,3.55
2019-05-03T15:00:16.834Z,2.67
2019-05-03T15:01:24.830Z,2.12
2019-05-03T15:02:43.461Z,4.17
2019-05-03T15:03:41.049Z,3.80
2019-05-03T15:04:45.007Z,4.60
2019-05-03T15:05:49.096Z,5.20
2019-05-03T15:06:54.946Z,3.92
2019-05-03T15:07:57.292Z,1.90
2019-05-03T15:09:01.222Z,3.98
2019-05-03T15:10:05.663Z,6.85
2019-05-03T15:11:10.717Z,3.92
2019-05-03T15:12:15.584Z,2.47
2019-05-03T15:13:26.131Z,5.53
2019-05-03T15:14:31.781Z,5.17
2019-05-03T15:15:35.782Z,3.98
2019-05-03T15:16:39.742Z,1.77
2019-05-03T15:17:45.751Z,2.08
2019-05-03T15:18:48.830Z,3.17
2019-05-03T15:19:54.580Z,3.85
2019-05-03T15:20:56.719Z,3.12
2019-05-03T15:22:00.730Z,4.65
2019-05-03T15:23:05.587Z,2.90
2019-05-03T15:24:11.017Z,3.05
2019-05-03T15:25:14.977Z,2.98
2019-05-03T15:26:18.905Z,5.62
2019-05-03T15:27:24.858Z,3.95
2019-05-03T15:28:26.997Z,2.30
2019-05-03T15:29:30.967Z,2.40
2019-05-03T15:30:35.351Z,1.62
2019-05-03T15:31:39.287Z,2.37
2019-05-03T15:32:56.206Z,5.80
2019-05-03T15:33:48.310Z,3.22
2019-05-03T15:34:52.267Z,4.17
2019-05-03T15:35:57.169Z,3.95
2019-05-03T15:37:01.125Z,3.70
2019-05-03T15:38:05.890Z,2.70
2019-05-03T15:39:10.735Z,3.55
2019-05-03T15:40:15.567Z,3.30
2019-05-03T15:41:25.115Z,3.15
2019-05-03T15:42:30.114Z,3.35
2019-05-03T15:43:45.392Z,5.55
2019-05-03T15:44:54.528Z,3.90
2019-05-03T15:46:05.201Z,1.50
2019-05-03T15:47:14.787Z,4.00
2019-05-03T15:48:26.705Z,3.37
2019-05-03T15:49:36.014Z,2.60
2019-05-03T15:50:41.973Z,4.15
2019-05-03T15:51:46.862Z,2.77
2019-05-03T15:53:04.162Z,1.30
2019-05-03T15:54:07.161Z,3.33
2019-05-03T15:55:12.182Z,4.65
2019-05-03T15:56:16.742Z,4.97
2019-05-03T15:57:25.359Z,4.80
2019-05-03T15:58:30.340Z,2.27
2019-05-03T15:59:41.886Z,3.87
2019-05-03T16:00:47.984Z,4.45
2019-05-03T16:01:52.065Z,1.30
2019-05-03T16:03:08.056Z,5.15
2019-05-03T16:04:09.670Z,2.52
2019-05-03T16:05:35.452Z,1.98
2019-05-03T16:06:38.302Z,2.62
2019-05-03T16:07:45.435Z,1.77
2019-05-03T16:08:51.699Z,1.20
2019-05-03T16:09:59.315Z,3.00
2019-05-03T16:11:05.390Z,1.90
2019-05-03T16:12:08.553Z,2.25
2019-05-03T16:13:14.289Z,3.98
2019-05-03T16:14:17.567Z,3.80
2019-05-03T16:15:22.211Z,6.67
2019-05-03T16:16:26.827Z,2.60
2019-05-03T16:17:31.545Z,7.17
2019-05-03T16:18:36.693Z,4.35
2019-05-03T16:19:42.261Z,2.02
2019-05-03T16:20:46.260Z,1.95
2019-05-03T16:21:51.190Z,2.05
2019-05-03T16:22:55.211Z,1.40
2019-05-03T16:24:00.334Z,1.95
2019-05-03T16:25:05.340Z,1.25
2019-05-03T16:26:10.230Z,1.47
2019-05-03T16:27:21.406Z,1.50
2019-05-03T16:28:44.671Z,1.65
2019-05-03T16:29:48.517Z,4.78
2019-05-03T16:30:55.583Z,1.42
2019-05-03T16:32:00.250Z,1.70
2019-05-03T16:33:04.678Z,1.70
2019-05-03T16:34:09.453Z,1.22
2019-05-03T16:35:14.873Z,2.50
2019-05-03T16:36:18.559Z,1.07
2019-05-03T16:37:22.671Z,2.70
2019-05-03T16:38:31.091Z,1.90
2019-05-03T16:39:35.427Z,2.20
2019-05-03T16:40:54.501Z,1.70
2019-05-03T16:41:57.637Z,3.22
2019-05-03T16:43:03.308Z,1.37
2019-05-03T16:44:09.614Z,2.37
2019-05-03T16:45:17.027Z,2.10
2019-05-03T16:46:21.990Z,2.85
2019-05-03T16:47:26.906Z,2.27
2019-05-03T16:48:30.815Z,2.50
2019-05-03T16:49:35.591Z,1.75
2019-05-03T16:50:40.705Z,1.42
2019-05-03T16:51:47.389Z,0.95
2019-05-03T16:52:51.354Z,1.30
2019-05-03T16:53:57.246Z,1.67
2019-05-03T16:55:01.313Z,4.87
2019-05-03T16:56:07.949Z,0.95
2019-05-03T16:57:14.903Z,1.60
2019-05-03T16:58:24.610Z,1.60
2019-05-03T16:59:28.617Z,1.25
2019-05-03T17:00:35.291Z,2.22
2019-05-03T17:01:38.549Z,1.32
2019-05-03T17:02:44.297Z,1.25
2019-05-03T17:03:54.794Z,1.37
2019-05-03T17:05:01.646Z,1.35
2019-05-03T17:06:11.369Z,1.87
2019-05-03T17:07:52.886Z,3.22
2019-05-03T17:11:12.579Z,1.30
2019-05-03T17:12:25.541Z,2.47
2019-05-03T17:13:30.091Z,1.10
2019-05-03T17:14:38.728Z,2.55
2019-05-03T17:15:43.596Z,1.15
2019-05-03T17:16:48.091Z,1.80
2019-05-03T17:17:56.361Z,1.27
2019-05-03T17:19:02.584Z,2.67
2019-05-03T17:20:08.132Z,1.07
2019-05-03T17:21:14.625Z,1.82
2019-05-03T17:22:17.621Z,0.88
2019-05-03T17:23:22.290Z,2.33
2019-05-03T17:24:31.109Z,1.57
2019-05-03T17:25:35.415Z,1.07
2019-05-03T17:26:39.734Z,1.40
2019-05-03T17:27:44.995Z,1.37
2019-05-03T17:28:49.340Z,2.05
2019-05-03T17:33:27.937Z,1.17
2019-05-03T17:34:32.033Z,1.95
2019-05-03T17:35:38.859Z,0.75
2019-05-03T17:36:49.072Z,2.12
2019-05-03T17:37:54.648Z,1.72
2019-05-03T17:39:04.416Z,1.42
2019-05-03T17:41:14.800Z,0.90
2019-05-03T17:43:21.919Z,1.57
2019-05-03T17:44:31.292Z,1.05
2019-05-03T17:45:39.619Z,1.10
2019-05-03T17:46:45.283Z,1.32
2019-05-03T17:47:50.233Z,1.20
2019-05-03T17:48:56.139Z,0.98
2019-05-03T17:50:05.202Z,0.98
2019-05-03T17:51:09.207Z,1.00
2019-05-03T17:52:47.482Z,1.00
2019-05-03T17:54:01.719Z,0.90
2019-05-03T17:55:15.825Z,0.98
2019-05-03T17:56:32.023Z,1.00
2019-05-03T17:58:44.238Z,2.58
2019-05-03T17:59:52.474Z,1.17
2019-05-03T18:01:18.718Z,1.45
2019-05-03T18:02:33.286Z,1.87
2019-05-03T18:03:40.908Z,1.40
2019-05-03T18:04:55.001Z,2.50
2019-05-03T18:06:07.649Z,0.95
2019-05-03T18:07:21.192Z,2.15
2019-05-03T18:08:32.174Z,0.80
2019-05-03T18:09:41.246Z,3.45
2019-05-03T18:10:51.401Z,1.22
2019-05-03T18:12:00.590Z,2.12
2019-05-03T18:13:06.031Z,1.10
2019-05-03T18:14:14.562Z,1.27
2019-05-03T18:15:18.364Z,1.02
2019-05-03T18:16:24.469Z,1.00
2019-05-03T18:17:30.160Z,0.90
2019-05-03T18:18:39.449Z,1.00
2019-05-03T18:19:48.847Z,1.25
2019-05-03T18:20:55.466Z,1.72
2019-05-03T18:22:01.171Z,2.62
2019-05-03T18:23:06.624Z,0.78
2019-05-03T18:24:15.390Z,0.85
2019-05-03T18:25:18.557Z,0.98
2019-05-03T18:26:26.356Z,1.87
2019-05-03T18:27:35.293Z,2.02
2019-05-03T18:28:41.425Z,0.88
2019-05-03T18:29:45.890Z,0.80
2019-05-03T18:30:51.591Z,0.70
2019-05-03T18:31:58.620Z,0.90
2019-05-03T18:33:06.175Z,0.70
2019-05-03T18:34:18.962Z,0.80
2019-05-03T18:35:19.408Z,1.10
2019-05-03T18:36:27.480Z,1.02
2019-05-03T18:37:36.188Z,0.88
2019-05-03T18:38:44.699Z,0.75
2019-05-03T18:39:49.157Z,1.67
2019-05-03T18:40:57.183Z,0.70
2019-05-03T18:42:04.932Z,0.90
2019-05-03T18:43:14.939Z,1.40
2019-05-03T18:44:23.292Z,0.93
2019-05-03T18:46:32.738Z,0.90
2019-05-03T18:47:42.355Z,1.27
2019-05-03T18:48:46.602Z,2.45
2019-05-03T18:49:55.282Z,1.25
2019-05-03T18:51:02.126Z,1.70
2019-05-03T18:52:08.263Z,0.82
2019-05-03T18:53:15.018Z,0.80
2019-05-03T18:54:18.463Z,2.20
2019-05-03T18:55:25.269Z,0.88
2019-05-03T18:56:29.674Z,0.80
2019-05-03T18:57:36.352Z,1.07
2019-05-03T18:58:40.768Z,0.82
2019-05-03T18:59:46.130Z,0.75
2019-05-03T19:00:54.871Z,0.90
2019-05-03T19:01:59.519Z,0.72
2019-05-03T19:03:09.787Z,0.60
2019-05-03T19:04:32.391Z,0.80
2019-05-03T19:05:32.671Z,0.80
2019-05-03T19:06:38.004Z,0.95
2019-05-03T19:07:54.595Z,0.90
2019-05-03T19:09:05.277Z,0.90
2019-05-03T19:10:18.885Z,1.50
2019-05-03T19:11:30.119Z,0.80
2019-05-03T19:12:50.415Z,0.70
2019-05-03T19:13:58.349Z,0.98
2019-05-03T19:15:05.318Z,1.65
2019-05-03T19:17:17.641Z,1.00
2019-05-03T19:18:26.729Z,0.60
2019-05-03T19:19:37.869Z,0.88
2019-05-03T19:20:45.548Z,0.80
2019-05-03T19:21:49.681Z,0.80
2019-05-03T19:22:54.502Z,0.98
2019-05-03T19:24:00.085Z,0.70
2019-05-03T19:25:05.795Z,0.70
2019-05-03T19:26:14.378Z,1.35
2019-05-03T19:27:17.687Z,0.88
2019-05-03T19:28:24.901Z,0.62
2019-05-03T19:29:30.505Z,1.07
2019-05-03T19:30:36.079Z,0.65
2019-05-03T19:31:44.899Z,0.90
2019-05-03T19:32:48.598Z,0.72
2019-05-03T19:33:55.631Z,1.15
2019-05-03T19:35:01.027Z,1.50
2019-05-03T19:36:07.595Z,0.80
2019-05-03T19:37:14.515Z,0.80
2019-05-03T19:38:17.447Z,0.70
2019-05-03T19:39:22.649Z,1.15
2019-05-03T19:40:28.052Z,0.60
2019-05-03T19:41:34.525Z,0.62
2019-05-03T19:42:39.315Z,1.22
2019-05-03T19:43:46.180Z,0.70
2019-05-03T19:44:55.262Z,0.90
2019-05-03T19:45:59.501Z,0.65
2019-05-03T19:47:06.499Z,0.80
2019-05-03T19:48:09.765Z,0.60
2019-05-03T19:49:13.539Z,0.85
2019-05-03T19:50:19.178Z,0.70
2019-05-03T19:51:23.797Z,0.70
2019-05-03T19:52:34.308Z,0.98
2019-05-03T19:53:48.035Z,0.70
2019-05-03T19:54:55.439Z,0.60
2019-05-03T19:55:59.215Z,0.72
2019-05-03T19:57:06.683Z,0.70
2019-05-03T19:58:10.894Z,1.30
2019-05-03T19:59:19.805Z,0.88
2019-05-03T20:00:25.555Z,0.80
2019-05-03T20:01:35.701Z,0.85
2019-05-03T20:02:57.657Z,0.80
2019-05-03T20:04:06.891Z,0.82
2019-05-03T20:05:21.836Z,0.80
2019-05-03T20:06:36.255Z,0.80
2019-05-03T20:08:15.796Z,0.70
2019-05-03T20:09:21.032Z,1.15
2019-05-03T20:10:28.719Z,0.65
2019-05-03T20:11:36.410Z,0.80
2019-05-03T20:12:42.781Z,0.70
2019-05-03T20:13:47.614Z,0.50
2019-05-03T20:14:51.868Z,0.70
2019-05-03T20:16:00.850Z,0.90
2019-05-03T20:17:06.746Z,0.60
2019-05-03T20:18:11.667Z,0.80
2019-05-03T20:19:25.716Z,1.52
2019-05-03T20:20:30.678Z,0.78
2019-05-03T20:21:35.859Z,0.72
2019-05-03T20:22:45.101Z,0.90
2019-05-03T20:23:51.241Z,0.70
2019-05-03T20:24:57.113Z,0.72
2019-05-03T20:26:02.809Z,0.65
2019-05-03T20:27:07.704Z,0.70
2019-05-03T20:28:12.587Z,0.70
2019-05-03T20:29:17.615Z,1.02
2019-05-03T20:30:31.723Z,0.80
2019-05-03T20:31:42.323Z,0.80
2019-05-03T20:32:49.832Z,0.70
2019-05-03T20:33:54.873Z,0.70
2019-05-03T20:35:10.187Z,0.70
2019-05-03T20:36:04.725Z,2.60
2019-05-03T20:37:08.843Z,4.03
2019-05-03T20:38:15.115Z,3.62
2019-05-03T20:39:20.866Z,12.43
2019-05-03T20:40:26.488Z,18.65
2019-05-03T20:41:35.036Z,8.40
2019-05-03T20:43:22.922Z,2.45
2019-05-03T20:44:32.463Z,6.75
2019-05-03T20:45:48.895Z,3.98
2019-05-03T20:47:04.417Z,10.45
2019-05-03T20:48:08.904Z,6.47
2019-05-03T20:49:15.434Z,5.58
2019-05-03T20:50:24.926Z,11.05
2019-05-03T20:51:30.029Z,11.22
2019-05-03T20:52:35.460Z,7.90
2019-05-03T20:53:40.894Z,9.23
2019-05-03T20:54:45.929Z,8.13
2019-05-03T20:55:54.589Z,6.58
2019-05-03T20:57:00.133Z,7.67
2019-05-03T20:58:07.926Z,5.28
2019-05-03T20:59:10.433Z,4.30
2019-05-03T21:00:16.526Z,4.20
2019-05-03T21:01:21.430Z,8.80
2019-05-03T21:02:25.612Z,7.78
2019-05-03T21:03:33.463Z,5.95
2019-05-03T21:04:38.753Z,3.33
2019-05-03T21:05:44.452Z,2.42
2019-05-03T21:06:55.187Z,4.12
2019-05-03T21:08:02.339Z,4.78
2019-05-03T21:09:09.264Z,6.00
2019-05-03T21:10:16.764Z,4.13
2019-05-03T21:11:22.234Z,6.03
2019-05-03T21:12:28.186Z,4.35
2019-05-03T21:13:39.955Z,4.25
2019-05-03T21:14:41.774Z,3.67
2019-05-03T21:18:34.489Z,21.65
2019-05-03T21:19:51.883Z,8.85
2019-05-03T21:21:02.707Z,4.28
2019-05-03T21:22:19.243Z,3.02
2019-05-03T21:23:25.485Z,9.28
2019-05-03T21:24:37.176Z,3.40
2019-05-03T21:26:03.499Z,3.27
2019-05-03T21:26:51.904Z,5.03
2019-05-03T21:27:56.662Z,8.28
2019-05-03T21:29:02.354Z,3.47
2019-05-03T21:30:11.594Z,5.40
2019-05-03T21:31:24.597Z,2.60
2019-05-03T21:32:30.680Z,8.55
2019-05-03T21:33:39.847Z,6.30
2019-05-03T21:34:46.541Z,5.05
2019-05-03T21:35:51.905Z,5.58
2019-05-03T21:36:57.654Z,4.47
2019-05-03T21:38:04.959Z,2.70
2019-05-03T21:39:16.783Z,2.80
2019-05-03T21:40:24.341Z,3.12
2019-05-03T21:41:30.102Z,4.12
2019-05-03T21:42:38.072Z,5.75
2019-05-03T21:43:45.129Z,1.98
2019-05-03T21:44:51.927Z,1.65
2019-05-03T21:46:04.867Z,4.80
2019-05-03T21:47:17.696Z,3.10
2019-05-03T21:48:28.859Z,3.10
2019-05-03T21:49:40.431Z,4.83
2019-05-03T21:50:46.527Z,2.27
2019-05-03T21:51:53.540Z,3.05
2019-05-03T21:52:59.997Z,2.10
2019-05-03T21:54:09.394Z,3.33
2019-05-03T21:55:16.591Z,1.55
2019-05-03T21:56:24.828Z,4.90
2019-05-03T21:57:28.040Z,4.80
2019-05-03T21:58:32.961Z,3.85
2019-05-03T21:59:44.667Z,2.25
2019-05-03T22:01:06.172Z,2.60
2019-05-03T22:02:12.768Z,2.05
2019-05-03T22:03:25.099Z,3.27
2019-05-03T22:04:29.509Z,2.22
2019-05-03T22:05:35.405Z,1.50
2019-05-03T22:06:41.628Z,3.75
2019-05-03T22:07:50.808Z,3.70
2019-05-03T22:08:55.516Z,1.50
2019-05-03T22:10:00.242Z,3.08
2019-05-03T22:11:05.348Z,2.12
2019-05-03T22:12:08.890Z,3.55
2019-05-03T22:13:15.516Z,1.82
2019-05-03T22:14:25.636Z,2.30
2019-05-03T22:15:37.566Z,2.83
2019-05-03T22:16:46.689Z,9.23
2019-05-03T22:17:56.692Z,2.05
2019-05-03T22:19:01.211Z,1.27
2019-05-03T22:21:10.459Z,9.28
2019-05-03T22:22:21.001Z,3.22
2019-05-03T22:23:30.642Z,3.52
2019-05-03T22:24:44.674Z,2.60
2019-05-03T22:25:46.886Z,3.08
2019-05-03T22:26:53.472Z,3.72
2019-05-03T22:27:58.463Z,3.08
2019-05-03T22:29:02.500Z,3.37
2019-05-03T22:30:07.815Z,6.22
2019-05-03T22:31:12.487Z,6.22
2019-05-03T22:32:17.169Z,4.72
2019-05-03T22:33:22.436Z,3.20
2019-05-03T22:34:27.510Z,1.22
2019-05-03T22:35:32.039Z,1.77
2019-05-03T22:36:36.097Z,3.75
2019-05-03T22:37:40.105Z,3.62
2019-05-03T22:38:47.807Z,0.95
2019-05-03T22:39:52.018Z,3.08
2019-05-03T22:40:56.005Z,1.30
2019-05-03T22:42:00.540Z,1.10
2019-05-03T22:43:07.966Z,2.50
2019-05-03T22:44:16.814Z,4.92
2019-05-03T22:45:19.061Z,2.55
2019-05-03T22:46:24.943Z,2.50
2019-05-03T22:47:28.705Z,2.50
2019-05-03T22:48:33.716Z,0.90
2019-05-03T22:49:38.718Z,1.27
2019-05-03T22:50:44.941Z,1.15
2019-05-03T22:51:51.298Z,2.42
2019-05-03T22:52:56.901Z,4.12
2019-05-03T22:54:04.745Z,3.00
2019-05-03T22:55:09.173Z,2.60
2019-05-03T22:56:14.844Z,1.62
2019-05-03T22:57:20.234Z,5.00
2019-05-03T22:58:25.246Z,1.67
2019-05-03T22:59:34.469Z,4.30
2019-05-03T23:00:44.495Z,3.00
2019-05-03T23:01:48.904Z,2.12
2019-05-03T23:02:54.756Z,1.87
2019-05-03T23:03:59.780Z,1.37
2019-05-03T23:05:05.108Z,3.72
2019-05-03T23:06:19.582Z,1.90
2019-05-03T23:07:14.902Z,0.75
2019-05-03T23:08:19.886Z,3.85
2019-05-03T23:09:24.998Z,2.77
2019-05-03T23:10:32.096Z,1.00
2019-05-03T23:11:39.197Z,3.90
2019-05-03T23:12:46.461Z,1.77
2019-05-03T23:14:05.194Z,4.92
2019-05-03T23:15:11.544Z,1.75
2019-05-03T23:16:16.600Z,1.77
2019-05-03T23:17:22.166Z,1.27
2019-05-03T23:18:27.147Z,1.00
2019-05-03T23:19:33.022Z,0.70
2019-05-03T23:20:44.810Z,2.90
2019-05-03T23:22:54.791Z,3.25
2019-05-03T23:23:58.068Z,3.22
2019-05-03T23:25:02.173Z,0.60
2019-05-03T23:26:07.344Z,0.70
2019-05-03T23:27:11.699Z,1.52
2019-05-03T23:28:16.727Z,1.77
2019-05-03T23:29:24.197Z,3.75
2019-05-03T23:30:28.808Z,0.68
2019-05-03T23:31:34.417Z,1.57
2019-05-03T23:32:38.713Z,1.90
2019-05-03T23:33:45.208Z,0.50
2019-05-03T23:34:49.064Z,4.17
2019-05-03T23:35:55.186Z,3.40
2019-05-03T23:37:06.233Z,1.22
2019-05-03T23:38:10.184Z,1.65
2019-05-03T23:39:17.058Z,2.47
2019-05-03T23:40:21.930Z,2.87
2019-05-03T23:41:25.924Z,3.02
2019-05-03T23:42:31.416Z,8.28
2019-05-03T23:43:35.813Z,1.02
2019-05-03T23:44:40.957Z,4.33
2019-05-03T23:45:46.226Z,2.27
2019-05-03T23:46:54.558Z,2.60
2019-05-03T23:47:58.248Z,5.80
2019-05-03T23:49:02.948Z,0.85
2019-05-03T23:50:09.124Z,1.00
2019-05-03T23:51:17.132Z,1.47
2019-05-03T23:52:26.514Z,4.10
2019-05-03T23:53:30.429Z,1.45
2019-05-03T23:54:36.222Z,0.65
2019-05-03T23:55:46.778Z,3.40
2019-05-03T23:56:50.701Z,1.77
2019-05-03T23:57:55.393Z,1.37
2019-05-03T23:59:01.113Z,1.67
